Current Weather

Linden

Linden, New Jersey (KLDJ)

Report from: Tuesday, May 21, 2024 11:55 AM EDT
Current time: Tuesday, May 21, 2024 12:25 PM EDT

Nearby weather – Weather history – Daily summaries
Weather forecast

Temperature24.6°C (76.3°F)
Dew point15.9°C (60.6°F)
Winds Calm
Visibility10 mi. (16.1 km)
Clouds Sky clear
Altimeter29.99 in.Hg (1016 mB)
Relative humidity58 %
Density altitude1,283 ft. (391 m)
Remarks Fully automated report
Automated weather observing station with precipitation discriminator
Flight conditions Visual Meteorological Conditions
Raw dataKLDJ 211555Z AUTO 00000KT 10SM CLR 25/16 A2999 RMK AO2 T02460159
An error has occurred. This application may no longer respond until reloaded. Reload 🗙